Geraldton Airport
YGEL : now visible

Airfield :











YOU CAN JOIN US ON...

 
LOGIN :

Register | Disclaimer

   EN    FR    IT 

 









Legend :    VFR   Marginal VFR   IFR   Intensive IFR   Very Intensive IFR
Visi :
Ceiling :
>= 8 km
>= 3000ft
5 to 8 km
1000 to 3000 ft
1500m to 5 km
500 to 1000 ft
800 to 1500m
200 to 500 ft
< 800m
< 200 ft
Symbols :   Thunderstorms  Fog  Heavy snow  Heavy precipitations  Wind > 20 kt






- Airport Elevation : 121 ft
- IATA code : GET


YGEL - Geraldton

CURRENT METAR :
  • 292000Z AUTO 23009KT 9999 // ////// 18/12 Q1012 RF00.0/000.0

EXPIRED METARs :
  • 291930Z AUTO 24008KT 9999 // ////// 17/11 Q1012 RF00.0/000.0
  • 291900Z AUTO 23009KT 9999 // ////// 18/11 Q1012 RF00.0/000.0
  • 291830Z AUTO 21009KT 9999 // ////// 17/11 Q1012 RF00.0/000.0
  • 291800Z AUTO 22008KT 9999 // ////// 17/11 Q1012 RF00.0/000.0
  • 291730Z AUTO 22008KT 9999 // ////// 17/10 Q1012 RF00.0/000.0

TAF TAF YGEL
Valid from the 29 at 18:00 until the 30 at 12:00 UTC


291711Z 2918/3012 20012KT 9999 BKN025
BECMG 2923/3000 20020KT 9999 BKN035
FM300200 20020KT 9999 SCT050
YMMM FIR / Oceania



MET'MAP, your aeronautical weather chart ! - Copyright ORBIFLY December 2007 - Disclaimer

ORBIFLY MET'MAP TEAM :

Programming & Development : Alexandra Zaïnal
Concept & original design : Baudouin d'Aumeries
Assistance for programming : Marc-Olivier Méhu
Technical & hardware support : Manuel Goepfert

Contact : metmap@orbifly.com




SOURCES & CREDITS :

   NOAA       Earth
Advisory